CYQB

Quebec / Jean Lesage International Airport

Quebec, , Canada
TAF CYQB 210538Z 2106/2206 31010KT P6SM BKN070 FM210800 29005KT P6SM SCT030 FM211600 30010KT P6SM FEW060 SCT140 TEMPO 2118/2123 BKN060 RMK NXT FCST BY 211200Z
Issued Valid From Valid To
Apr-21 @ 05:38 UTC
(4 hours ago)
Apr-21 @ 06:00 UTC
(4 hours ago)
Apr-22 @ 06:00 UTC
(in 20 hours)
Expired Click to View Apr-21 @ 06:00 to Apr-21 @ 08:00
TAF CYQB 210538Z 2106/2206 31010KT P6SM BKN070
Wind Visibility Clouds
310° at 10 knots Greater than 6 miles
  • Broken at 7,000' AGL
From Apr-21 @ 08:00 to Apr-21 @ 16:00
FM210800 29005KT P6SM SCT030
Wind Visibility Clouds
290° at 5 knots Greater than 6 miles
  • Scattered at 3,000' AGL
From Apr-21 @ 16:00 to Apr-22 @ 06:00
FM211600 30010KT P6SM FEW060 SCT140
Wind Visibility Clouds
300° at 10 knots Greater than 6 miles
  • Few at 6,000' AGL
  • Scattered at 14,000' AGL
Temporary Apr-21 @ 18:00 to Apr-21 @ 23:00
TEMPO 2118/2123 BKN060 RMK NXT FCST BY 211200Z
Clouds
  • Broken at 6,000' AGL
TAF CYQB 210538Z 2106/2206 31010KT P6SM BKN070 FM210800 29005KT P6SM SCT030 FM211600 30010KT P6SM FEW060 SCT140 TEMPO 2118/2123 BKN060 RMK NXT FCST BY 211200Z
Issued Apr-21 @ 05:38 UTC
(4 hours ago)
Valid From Apr-21 @ 06:00 UTC
(4 hours ago)
Valid To Apr-22 @ 06:00 UTC
(in 20 hours)
Apr-21 @ 06:00 - Apr-21 @ 08:00
Wind Visibility
310° at 10 knots Greater than 6 miles
Clouds
  • Broken at 7,000' AGL
From Apr-21 @ 08:00 - Apr-21 @ 16:00
Wind Visibility
290° at 5 knots Greater than 6 miles
Clouds
  • Scattered at 3,000' AGL
From Apr-21 @ 16:00 - Apr-22 @ 06:00
Wind Visibility
300° at 10 knots Greater than 6 miles
Clouds
  • Few at 6,000' AGL
  • Scattered at 14,000' AGL
Temporary Apr-21 @ 18:00 - Apr-21 @ 23:00
Clouds
  • Broken at 6,000' AGL